BBC Switzerland — DGFL2 — position and weather

sailwx.info

Track history (hours):
 
Tides and Currents Weather Stations Pressure Air Temp Water Temp Dewpoint Dewpoint Depression Visibility Wind Speed Wind Dir Waves Ship Positions

BBC Switzerland

Last reported at 2015-May-01 22:33 UTC. Time now 2015-May-03 17:54 UTC.
Position N 58°46' E 005°18'.

Length 119 m; draft 6.4 m.

Type: Cargo ship. MMSI: 218629000.

Date/timePositionNaut miles runAvg speedWind from/ knotsBaromVisibWave heightAir tempDewpointWater temp
2015-May-01 22:33N 58°46' E 005°18'1010.1
2015-May-01 21:34N 58°53' E 005°31'3 2.9
2015-May-01 20:31N 58°56' E 005°35'0 0.0
2015-May-01 19:31N 58°56' E 005°35'0 0.0
2015-May-01 18:31N 58°56' E 005°35'0 0.0
2015-May-01 17:31N 58°56' E 005°35'0 0.0
2015-May-01 16:31N 58°56' E 005°35'0 0.0
2015-May-01 15:22N 58°56' E 005°35'0 0.0
2015-May-01 14:25N 58°56' E 005°35'0 0.0
2015-May-01 13:31N 58°56' E 005°35'0 0.0
2015-May-01 12:25N 58°56' E 005°35'0 0.0
2015-May-01 11:28N 58°56' E 005°35'0 0.0
2015-May-01 10:28N 58°56' E 005°35'0 0.0
2015-May-01 09:28N 58°56' E 005°35'0 0.0
2015-May-01 08:31N 58°56' E 005°35'0 0.0
2015-May-01 07:31N 58°56' E 005°35'0 0.0
2015-May-01 06:31N 58°56' E 005°35'0 0.0
2015-May-01 05:31N 58°56' E 005°35'0 0.0
2015-May-01 04:31N 58°56' E 005°35'0 0.0
2015-May-01 03:28N 58°56' E 005°35'0 0.0
2015-May-01 02:22N 58°56' E 005°35'0 0.0
2015-May-01 01:31N 58°56' E 005°35'0 0.0
2015-May-01 00:28N 58°56' E 005°35'0 0.0
2015-Apr-30 23:25N 58°56' E 005°35'0 0.0
2015-Apr-30 22:31N 58°56' E 005°35'0 0.0
2015-Apr-30 21:31N 58°56' E 005°35'0 0.0
2015-Apr-30 20:31N 58°56' E 005°35'0 0.0
2015-Apr-30 19:28N 58°56' E 005°35'0 0.0
2015-Apr-30 18:31N 58°56' E 005°35'0 0.0
2015-Apr-30 17:31N 58°56' E 005°35'1 1.6
2015-Apr-30 16:33N 58°57' E 005°33'1212.4
2015-Apr-30 15:33N 59°08' E 005°23'  
2015-Apr-27 00:19N 59°45' E 005°30'0 0.0
2015-Apr-26 09:25N 59°45' E 005°30'  
2015-Apr-23 18:15N 59°28' E 005°13'810.8
2015-Apr-23 17:32N 59°21' E 005°19'10 9.8
2015-Apr-23 16:33N 59°11' E 005°21'1313.3
2015-Apr-23 15:33N 58°58' E 005°20'1312.6
2015-Apr-23 14:33N 58°45' E 005°20'2612.4
2015-Apr-23 12:25N 58°19' E 005°28'37912.3
2015-Apr-22 05:31N 52°05' E 003°48'1010.8
2015-Apr-22 04:34N 51°59' E 004°03'2 1.8
2015-Apr-22 03:32N 51°58' E 004°03'0 0.0
2015-Apr-22 02:32N 51°58' E 004°03'0 0.0
2015-Apr-22 01:32N 51°58' E 004°03'0 0.0
2015-Apr-22 00:32N 51°58' E 004°03'0 0.0
2015-Apr-21 23:32N 51°58' E 004°03'  
Track history (hours):
 
Tides and Currents Weather Stations Pressure Air Temp Water Temp Dewpoint Dewpoint Depression Visibility Wind Speed Wind Dir Waves Ship Positions

BBC Switzerland

Last reported at 2015-May-01 22:33 UTC. Time now 2015-May-03 17:54 UTC.
Position N 58°46' E 005°18'.

Length 119 m; draft 6.4 m.

Type: Cargo ship. MMSI: 218629000.

Date/timePositionNaut miles runAvg speedWind from/ knotsBaromVisibWave heightAir tempDewpointWater temp
2015-May-01 22:33N 58°46' E 005°18'1010.1
2015-May-01 21:34N 58°53' E 005°31'3 2.9
2015-May-01 20:31N 58°56' E 005°35'0 0.0
2015-May-01 19:31N 58°56' E 005°35'0 0.0
2015-May-01 18:31N 58°56' E 005°35'0 0.0
2015-May-01 17:31N 58°56' E 005°35'0 0.0
2015-May-01 16:31N 58°56' E 005°35'0 0.0
2015-May-01 15:22N 58°56' E 005°35'0 0.0
2015-May-01 14:25N 58°56' E 005°35'0 0.0
2015-May-01 13:31N 58°56' E 005°35'0 0.0
2015-May-01 12:25N 58°56' E 005°35'0 0.0
2015-May-01 11:28N 58°56' E 005°35'0 0.0
2015-May-01 10:28N 58°56' E 005°35'0 0.0
2015-May-01 09:28N 58°56' E 005°35'0 0.0
2015-May-01 08:31N 58°56' E 005°35'0 0.0
2015-May-01 07:31N 58°56' E 005°35'0 0.0
2015-May-01 06:31N 58°56' E 005°35'0 0.0
2015-May-01 05:31N 58°56' E 005°35'0 0.0
2015-May-01 04:31N 58°56' E 005°35'0 0.0
2015-May-01 03:28N 58°56' E 005°35'0 0.0
2015-May-01 02:22N 58°56' E 005°35'0 0.0
2015-May-01 01:31N 58°56' E 005°35'0 0.0
2015-May-01 00:28N 58°56' E 005°35'0 0.0
2015-Apr-30 23:25N 58°56' E 005°35'0 0.0
2015-Apr-30 22:31N 58°56' E 005°35'0 0.0
2015-Apr-30 21:31N 58°56' E 005°35'0 0.0
2015-Apr-30 20:31N 58°56' E 005°35'0 0.0
2015-Apr-30 19:28N 58°56' E 005°35'0 0.0
2015-Apr-30 18:31N 58°56' E 005°35'0 0.0
2015-Apr-30 17:31N 58°56' E 005°35'1 1.6
2015-Apr-30 16:33N 58°57' E 005°33'1212.4
2015-Apr-30 15:33N 59°08' E 005°23'  
2015-Apr-27 00:19N 59°45' E 005°30'0 0.0
2015-Apr-26 09:25N 59°45' E 005°30'  
2015-Apr-23 18:15N 59°28' E 005°13'810.8
2015-Apr-23 17:32N 59°21' E 005°19'10 9.8
2015-Apr-23 16:33N 59°11' E 005°21'1313.3
2015-Apr-23 15:33N 58°58' E 005°20'1312.6
2015-Apr-23 14:33N 58°45' E 005°20'2612.4
2015-Apr-23 12:25N 58°19' E 005°28'37912.3
2015-Apr-22 05:31N 52°05' E 003°48'1010.8
2015-Apr-22 04:34N 51°59' E 004°03'2 1.8
2015-Apr-22 03:32N 51°58' E 004°03'0 0.0
2015-Apr-22 02:32N 51°58' E 004°03'0 0.0
2015-Apr-22 01:32N 51°58' E 004°03'0 0.0
2015-Apr-22 00:32N 51°58' E 004°03'0 0.0
2015-Apr-21 23:32N 51°58' E 004°03'  

Dump ship's entire track history